Time;durP1;ratioP1;P1;durP2;ratioP2;P2;SDS_P1;SDS_P2;PMS_P1;PMS_P2;Temp;Humidity;BMP_temperature;BMP_pressure;BME280_temperature;BME280_humidity;BME280_pressure;Samples;Min_cycle;Max_cycle;Signal;HPM_P1;HPM_P2
2022/04/10 00:00:07;;;;;;;8.27;0.93;;;21.60;99.90;;;;;;5045916;28;20085;-75
2022/04/10 00:02:35;;;;;;;5.82;0.98;;;21.40;99.90;;;;;;5048246;28;20017;-75
2022/04/10 00:05:03;;;;;;;7.70;1.17;;;21.40;99.90;;;;;;5043965;28;20025;-74
2022/04/10 00:07:30;;;;;;;6.88;0.75;;;21.40;99.90;;;;;;5054458;28;20155;-74
2022/04/10 00:09:57;;;;;;;5.45;0.95;;;21.40;99.90;;;;;;5051554;28;20021;-74
2022/04/10 00:12:25;;;;;;;8.60;1.55;;;21.50;99.90;;;;;;5052581;28;20024;-74
2022/04/10 00:14:52;;;;;;;5.35;0.75;;;21.60;99.90;;;;;;5051065;28;20932;-74
2022/04/10 00:17:19;;;;;;;8.20;1.33;;;21.60;99.90;;;;;;5051582;28;20029;-74
2022/04/10 00:19:46;;;;;;;7.13;1.00;;;21.60;99.90;;;;;;5051761;28;20029;-76
2022/04/10 00:22:14;;;;;;;5.35;1.35;;;21.50;99.90;;;;;;5043483;28;20048;-77
2022/04/10 00:24:41;;;;;;;11.48;1.17;;;21.40;99.90;;;;;;5082647;22;20057;-76
2022/04/10 00:27:13;;;;;;;6.32;0.63;;;21.40;99.90;;;;;;5064299;28;20089;-76
2022/04/10 00:29:41;;;;;;;7.40;1.10;;;21.40;99.90;;;;;;5072218;28;20031;-76
2022/04/10 00:32:09;;;;;;;8.27;1.00;;;21.40;99.90;;;;;;5073260;28;20089;-76
2022/04/10 00:34:36;;;;;;;5.53;1.20;;;21.30;99.90;;;;;;5073032;28;20401;-77
2022/04/10 00:37:04;;;;;;;8.52;1.90;;;21.30;99.90;;;;;;5073740;28;20024;-76
2022/04/10 00:39:31;;;;;;;9.82;1.20;;;21.20;99.90;;;;;;5089524;28;20029;-76
2022/04/10 00:41:58;;;;;;;8.15;0.85;;;21.20;99.90;;;;;;5073176;28;20044;-76
2022/04/10 00:44:25;;;;;;;7.15;0.93;;;21.10;99.90;;;;;;5064707;22;22117;-76
2022/04/10 00:46:53;;;;;;;5.05;0.90;;;21.10;99.90;;;;;;5057291;28;20028;-76
2022/04/10 00:49:20;;;;;;;8.27;1.27;;;21.10;99.90;;;;;;5054053;28;20411;-75
2022/04/10 00:51:49;;;;;;;6.68;0.90;;;21.20;99.90;;;;;;5059542;28;20017;-75
2022/04/10 00:54:24;;;;;;;8.98;1.70;;;21.20;99.90;;;;;;5035873;28;20033;-77
2022/04/10 00:56:54;;;;;;;7.78;1.08;;;21.10;99.90;;;;;;5064941;23;20053;-78
2022/04/10 00:59:21;;;;;;;4.75;0.80;;;21.10;99.90;;;;;;5036738;28;20060;-73
2022/04/10 01:01:49;;;;;;;8.13;1.35;;;21.00;99.90;;;;;;5048111;28;20029;-74
2022/04/10 01:04:16;;;;;;;8.02;0.80;;;21.00;99.90;;;;;;5047952;28;20064;-74
2022/04/10 01:06:47;;;;;;;6.07;1.30;;;20.90;99.90;;;;;;5048232;28;20032;-72
2022/04/10 01:09:15;;;;;;;8.50;1.25;;;20.90;99.90;;;;;;5051020;28;20021;-71
2022/04/10 01:11:43;;;;;;;7.35;1.08;;;21.00;99.90;;;;;;5045993;28;20121;-72
2022/04/10 01:14:12;;;;;;;8.98;1.38;;;21.30;99.90;;;;;;5049296;28;20618;-72
2022/04/10 01:16:41;;;;;;;6.63;1.17;;;21.60;99.90;;;;;;5048595;28;20033;-72
2022/04/10 01:19:11;;;;;;;8.25;1.30;;;21.80;99.90;;;;;;5048871;28;20029;-71
2022/04/10 01:21:44;;;;;;;6.97;1.08;;;22.00;99.90;;;;;;5048781;28;20025;-71
2022/04/10 01:24:12;;;;;;;7.43;1.50;;;22.30;99.90;;;;;;5044748;28;20029;-72
2022/04/10 01:26:39;;;;;;;6.18;1.60;;;22.10;99.90;;;;;;5046880;28;20040;-73
2022/04/10 01:29:09;;;;;;;11.35;1.95;;;22.30;99.90;;;;;;5045858;28;20037;-73
2022/04/10 01:31:41;;;;;;;7.00;1.85;;;22.50;99.90;;;;;;5046776;28;20025;-73
2022/04/10 01:34:11;;;;;;;10.75;1.48;;;23.00;99.90;;;;;;5072257;23;20144;-73
2022/04/10 01:36:38;;;;;;;8.27;1.13;;;23.70;99.90;;;;;;5040457;28;20033;-75
2022/04/10 01:39:08;;;;;;;8.65;1.35;;;23.90;99.90;;;;;;5054021;28;20396;-73
2022/04/10 01:41:36;;;;;;;9.93;1.88;;;23.60;99.90;;;;;;5053303;28;20025;-74
2022/04/10 01:44:08;;;;;;;11.30;1.23;;;23.20;99.90;;;;;;5048409;28;20045;-73
2022/04/10 01:46:36;;;;;;;4.60;0.88;;;23.30;99.90;;;;;;5054656;28;20055;-73
2022/04/10 01:49:07;;;;;;;7.90;1.75;;;23.60;99.90;;;;;;5051154;28;20143;-76
2022/04/10 01:51:35;;;;;;;4.93;1.20;;;23.50;99.90;;;;;;5074441;22;20048;-77
2022/04/10 01:54:02;;;;;;;6.93;1.77;;;23.30;99.90;;;;;;5073969;28;20538;-77
2022/04/10 01:56:29;;;;;;;9.23;1.58;;;23.20;99.90;;;;;;5073005;28;20024;-76
2022/04/10 01:58:57;;;;;;;8.60;1.98;;;23.00;99.90;;;;;;5072507;28;20123;-76
2022/04/10 02:01:24;;;;;;;5.78;1.77;;;22.70;99.90;;;;;;5073051;28;20028;-77
2022/04/10 02:03:52;;;;;;;8.18;1.13;;;22.60;99.90;;;;;;5070823;28;20025;-77
2022/04/10 02:06:19;;;;;;;7.63;1.02;;;22.60;99.90;;;;;;5089037;28;20035;-76
2022/04/10 02:08:47;;;;;;;5.03;1.05;;;22.60;99.90;;;;;;5072686;28;20496;-76
2022/04/10 02:11:17;;;;;;;6.00;1.08;;;22.40;99.90;;;;;;5072069;28;20031;-77
2022/04/10 02:13:45;;;;;;;10.93;1.15;;;22.30;99.90;;;;;;5073011;28;20035;-77
2022/04/10 02:16:17;;;;;;;7.88;1.00;;;22.80;99.90;;;;;;5071448;28;20055;-77
2022/04/10 02:18:46;;;;;;;5.57;1.02;;;22.80;99.90;;;;;;5071682;28;20481;-77
2022/04/10 02:21:14;;;;;;;4.80;1.08;;;23.60;99.90;;;;;;5072824;28;20082;-79
2022/04/10 02:23:41;;;;;;;10.93;1.83;;;24.30;99.90;;;;;;5071999;28;20119;-74
2022/04/10 02:26:15;;;;;;;7.40;2.13;;;24.90;99.90;;;;;;5066084;28;20036;-74
2022/04/10 02:28:42;;;;;;;8.18;1.40;;;24.70;99.90;;;;;;5072349;22;20056;-76
2022/04/10 02:31:10;;;;;;;9.65;1.33;;;25.00;99.90;;;;;;5033618;28;20473;-76
2022/04/10 02:33:37;;;;;;;10.80;1.45;;;24.70;99.90;;;;;;5059804;28;20017;-76
2022/04/10 02:36:06;;;;;;;6.40;1.13;;;24.40;99.90;;;;;;5056279;28;20041;-76
2022/04/10 02:38:33;;;;;;;7.28;0.77;;;24.20;99.90;;;;;;5035944;28;20474;-77
2022/04/10 02:41:00;;;;;;;9.32;1.42;;;24.40;99.90;;;;;;5069705;28;20039;-77
2022/04/10 02:43:27;;;;;;;7.53;1.15;;;24.30;99.90;;;;;;5055383;28;20021;-76
2022/04/10 02:45:55;;;;;;;12.50;1.77;;;24.30;99.90;;;;;;5058676;28;20025;-77
2022/04/10 02:48:23;;;;;;;4.53;1.05;;;24.10;99.90;;;;;;5051955;28;20102;-76
2022/04/10 02:50:51;;;;;;;10.05;1.48;;;24.00;99.90;;;;;;5053742;28;20029;-76
2022/04/10 02:53:18;;;;;;;5.45;0.95;;;24.30;99.90;;;;;;5053175;28;20059;-76
2022/04/10 02:55:45;;;;;;;8.18;1.27;;;24.20;99.90;;;;;;5053432;28;20041;-77
2022/04/10 02:58:12;;;;;;;8.15;1.70;;;24.50;99.90;;;;;;5073338;28;20055;-76
2022/04/10 03:00:40;;;;;;;10.80;2.00;;;23.90;99.90;;;;;;5042641;28;20031;-76
2022/04/10 03:03:07;;;;;;;7.00;1.42;;;23.30;99.90;;;;;;5035396;28;20050;-77
2022/04/10 03:05:34;;;;;;;8.85;1.30;;;23.70;99.90;;;;;;5053886;28;20017;-77
2022/04/10 03:08:01;;;;;;;7.03;1.33;;;23.90;99.90;;;;;;5050461;28;20469;-78
2022/04/10 03:10:29;;;;;;;5.72;1.38;;;23.80;99.90;;;;;;5042337;28;20132;-76
2022/04/10 03:12:56;;;;;;;11.05;1.77;;;24.20;99.90;;;;;;5048043;28;20016;-78
2022/04/10 03:15:23;;;;;;;12.05;1.67;;;24.20;99.90;;;;;;5053720;28;20044;-76
2022/04/10 03:17:51;;;;;;;8.98;1.05;;;24.40;99.90;;;;;;5036370;28;20079;-76
2022/04/10 03:20:18;;;;;;;7.50;1.00;;;24.10;99.90;;;;;;5046735;28;20419;-77
2022/04/10 03:22:45;;;;;;;7.93;1.48;;;23.80;99.90;;;;;;5055733;28;20477;-77
2022/04/10 03:25:12;;;;;;;6.97;1.10;;;24.00;99.90;;;;;;5041793;28;20033;-76
2022/04/10 03:27:40;;;;;;;5.93;0.88;;;24.10;99.90;;;;;;5049167;22;20071;-77
2022/04/10 03:30:08;;;;;;;5.82;1.00;;;23.90;99.90;;;;;;5077970;23;20066;-77
2022/04/10 03:32:35;;;;;;;3.70;0.82;;;24.10;99.90;;;;;;5107063;22;20066;-77
2022/04/10 03:35:03;;;;;;;4.70;0.90;;;23.60;99.90;;;;;;5057319;28;20088;-76
2022/04/10 03:37:30;;;;;;;5.75;1.27;;;23.30;99.90;;;;;;5077902;28;20064;-77
2022/04/10 03:39:57;;;;;;;6.68;0.77;;;23.20;99.90;;;;;;5062918;28;20025;-78
2022/04/10 03:42:25;;;;;;;5.90;1.00;;;23.30;99.90;;;;;;5064531;28;20103;-76
2022/04/10 03:44:52;;;;;;;5.53;1.00;;;23.20;99.90;;;;;;5077825;28;20457;-77
2022/04/10 03:47:19;;;;;;;6.45;1.10;;;23.10;99.90;;;;;;5058365;28;20052;-78
2022/04/10 03:49:46;;;;;;;9.48;1.50;;;23.00;99.90;;;;;;5074773;22;20073;-77
2022/04/10 03:52:14;;;;;;;11.27;1.63;;;22.80;99.90;;;;;;5062506;28;20021;-77
2022/04/10 03:54:41;;;;;;;8.05;1.20;;;22.70;99.90;;;;;;5057404;28;20020;-77
2022/04/10 03:57:08;;;;;;;5.45;0.98;;;22.80;99.90;;;;;;5062080;28;20166;-76
2022/04/10 03:59:35;;;;;;;7.10;0.82;;;22.80;99.90;;;;;;5075340;28;20040;-76
2022/04/10 04:02:03;;;;;;;7.80;1.40;;;22.70;99.90;;;;;;5044356;28;20409;-75
2022/04/10 04:04:30;;;;;;;6.57;1.23;;;22.80;99.90;;;;;;5085667;23;20052;-77
2022/04/10 04:06:58;;;;;;;10.80;1.52;;;22.90;99.90;;;;;;5073370;28;20028;-77
2022/04/10 04:09:26;;;;;;;7.65;0.77;;;22.90;99.90;;;;;;5063661;28;20036;-77
2022/04/10 04:11:53;;;;;;;8.48;1.67;;;22.90;99.90;;;;;;5074503;28;20036;-77
2022/04/10 04:14:21;;;;;;;12.30;1.48;;;22.80;99.90;;;;;;5070781;28;20102;-77
2022/04/10 04:16:48;;;;;;;9.30;1.17;;;22.90;99.90;;;;;;5073534;28;20028;-77
2022/04/10 04:19:16;;;;;;;7.45;1.40;;;22.80;99.90;;;;;;5073711;28;20024;-76
2022/04/10 04:21:43;;;;;;;10.45;1.77;;;22.70;99.90;;;;;;5075736;28;20383;-77
2022/04/10 04:24:10;;;;;;;8.30;1.38;;;22.80;99.90;;;;;;5078939;28;20059;-77
2022/04/10 04:26:37;;;;;;;9.57;1.13;;;22.80;99.90;;;;;;5075183;28;20024;-76
2022/04/10 04:29:05;;;;;;;6.25;1.02;;;22.90;99.90;;;;;;5073648;28;20417;-76
2022/04/10 04:31:32;;;;;;;12.15;1.92;;;22.90;99.90;;;;;;5072764;28;20081;-77
2022/04/10 04:33:59;;;;;;;15.38;2.03;;;22.90;99.90;;;;;;5125831;23;20052;-78
2022/04/10 04:36:26;;;;;;;10.65;1.63;;;22.90;99.90;;;;;;5073157;28;20035;-77
2022/04/10 04:38:56;;;;;;;9.90;1.58;;;22.70;99.90;;;;;;5075056;28;20028;-77
2022/04/10 04:41:23;;;;;;;12.23;1.38;;;22.60;99.90;;;;;;5092284;28;20484;-78
2022/04/10 04:43:50;;;;;;;8.05;1.50;;;22.50;99.90;;;;;;5093373;28;20099;-77
2022/04/10 04:46:18;;;;;;;8.48;1.10;;;22.60;99.90;;;;;;5076998;28;20024;-77
2022/04/10 04:48:45;;;;;;;11.48;1.25;;;22.70;99.90;;;;;;5076689;28;20031;-77
2022/04/10 04:51:16;;;;;;;11.65;1.05;;;22.70;99.90;;;;;;5101020;28;20035;-78
2022/04/10 04:53:43;;;;;;;7.43;1.20;;;22.70;99.90;;;;;;5102499;28;20016;-76
2022/04/10 04:56:10;;;;;;;6.32;1.15;;;22.80;99.90;;;;;;5082818;28;20024;-77
2022/04/10 04:58:37;;;;;;;7.85;1.30;;;22.70;99.90;;;;;;5080872;28;20058;-77
2022/04/10 05:01:05;;;;;;;7.25;1.05;;;22.70;99.90;;;;;;5081168;28;20036;-77
2022/04/10 05:03:35;;;;;;;7.18;0.55;;;22.70;99.90;;;;;;5098906;28;20020;-77
2022/04/10 05:06:02;;;;;;;8.15;1.50;;;22.70;99.90;;;;;;5081146;28;20028;-77
2022/04/10 05:08:30;;;;;;;7.25;1.30;;;22.70;99.90;;;;;;5079251;28;20492;-77
2022/04/10 05:10:58;;;;;;;8.15;1.25;;;22.70;99.90;;;;;;5087501;22;20040;-77
2022/04/10 05:13:26;;;;;;;10.48;1.58;;;22.70;99.90;;;;;;5073875;28;20029;-78
2022/04/10 05:15:54;;;;;;;10.55;1.40;;;22.60;99.90;;;;;;5052014;28;21362;-77
2022/04/10 05:18:21;;;;;;;13.65;1.98;;;22.60;99.90;;;;;;5069806;28;20029;-73
2022/04/10 05:20:48;;;;;;;8.65;1.65;;;22.60;99.90;;;;;;5077491;28;20032;-73
2022/04/10 05:23:19;;;;;;;7.32;1.15;;;22.50;99.90;;;;;;5079310;28;20025;-73
2022/04/10 05:25:48;;;;;;;7.18;0.75;;;22.60;99.90;;;;;;5077795;28;20029;-72
2022/04/10 05:28:15;;;;;;;6.00;1.42;;;22.50;99.90;;;;;;5092228;28;20021;-72
2022/04/10 05:30:43;;;;;;;8.73;1.45;;;22.50;99.90;;;;;;5080341;28;20032;-73
2022/04/10 05:33:11;;;;;;;8.23;1.20;;;22.50;99.90;;;;;;5080238;28;20468;-73
2022/04/10 05:35:38;;;;;;;8.93;1.35;;;22.50;99.90;;;;;;5074044;28;20037;-74
2022/04/10 05:38:06;;;;;;;7.63;0.90;;;22.40;99.90;;;;;;5079480;28;20028;-73
2022/04/10 05:40:33;;;;;;;6.55;1.00;;;22.50;99.90;;;;;;5071902;28;20036;-75
2022/04/10 05:43:01;;;;;;;11.32;1.55;;;22.50;99.90;;;;;;5074296;28;20020;-72
2022/04/10 05:45:28;;;;;;;7.57;0.95;;;22.50;99.90;;;;;;5072168;28;20032;-74
2022/04/10 05:47:55;;;;;;;10.30;1.20;;;22.50;99.90;;;;;;5060868;28;20020;-74
2022/04/10 05:50:23;;;;;;;11.32;1.50;;;22.50;99.90;;;;;;5053113;28;20020;-73
2022/04/10 05:52:53;;;;;;;5.93;0.98;;;22.50;99.90;;;;;;5070265;28;20024;-75
2022/04/10 05:55:21;;;;;;;9.43;1.58;;;22.60;99.90;;;;;;5072548;28;20124;-74
2022/04/10 05:57:48;;;;;;;7.88;1.65;;;22.60;99.90;;;;;;5076609;28;20056;-74
2022/04/10 06:00:17;;;;;;;6.40;1.27;;;22.50;99.90;;;;;;5073039;28;20063;-73
2022/04/10 06:02:44;;;;;;;7.70;1.17;;;22.50;99.90;;;;;;5072448;28;20033;-74
2022/04/10 06:05:12;;;;;;;7.13;1.00;;;22.50;99.90;;;;;;5053970;28;20028;-73
2022/04/10 06:07:39;;;;;;;5.97;1.35;;;22.60;99.90;;;;;;5065616;28;20021;-73
2022/04/10 06:10:07;;;;;;;8.55;1.15;;;22.50;99.90;;;;;;5071558;28;20036;-74
2022/04/10 06:12:34;;;;;;;4.15;0.80;;;22.60;99.90;;;;;;5062439;28;20086;-74
2022/04/10 06:15:02;;;;;;;6.85;1.00;;;22.50;99.90;;;;;;5070264;28;20062;-74
2022/04/10 06:17:30;;;;;;;13.38;1.38;;;22.50;99.90;;;;;;5050532;28;20163;-74
2022/04/10 06:20:01;;;;;;;9.15;1.27;;;22.50;99.90;;;;;;5071307;28;20012;-74
2022/04/10 06:22:28;;;;;;;13.48;1.95;;;22.50;99.90;;;;;;5071087;28;20032;-73
2022/04/10 06:24:55;;;;;;;7.38;1.23;;;22.40;99.90;;;;;;5070955;28;20024;-74
2022/04/10 06:27:22;;;;;;;10.30;0.80;;;22.40;99.90;;;;;;5053717;28;20420;-73
2022/04/10 06:29:50;;;;;;;8.27;1.10;;;22.30;99.90;;;;;;5052013;22;20038;-73
2022/04/10 06:32:17;;;;;;;6.93;1.05;;;22.30;99.90;;;;;;5030246;28;20159;-73
2022/04/10 06:34:44;;;;;;;9.07;1.23;;;22.30;99.90;;;;;;5029610;28;20041;-74
2022/04/10 06:37:12;;;;;;;6.78;1.02;;;22.30;99.90;;;;;;5029845;28;20029;-74
2022/04/10 06:39:40;;;;;;;7.97;1.00;;;22.40;99.90;;;;;;5030314;28;20367;-74
2022/04/10 06:42:08;;;;;;;6.22;0.77;;;22.30;99.90;;;;;;5032414;28;20028;-74
2022/04/10 06:44:37;;;;;;;11.35;1.25;;;22.40;99.90;;;;;;5030469;28;20437;-74
2022/04/10 06:47:04;;;;;;;10.45;1.35;;;22.30;99.90;;;;;;5032526;28;20481;-74
2022/04/10 06:49:32;;;;;;;6.22;0.93;;;22.20;99.90;;;;;;5031826;28;20411;-73
2022/04/10 06:52:00;;;;;;;8.32;0.75;;;22.10;99.90;;;;;;5030242;28;20032;-73
2022/04/10 06:54:27;;;;;;;10.55;1.40;;;22.10;99.90;;;;;;5031039;28;20021;-74
2022/04/10 06:56:54;;;;;;;9.02;1.20;;;22.00;99.90;;;;;;5032339;28;20041;-75
2022/04/10 06:59:21;;;;;;;9.88;1.13;;;21.90;99.90;;;;;;5029870;28;20517;-74
2022/04/10 07:01:49;;;;;;;10.80;1.33;;;21.80;99.90;;;;;;5030534;28;20068;-72
2022/04/10 07:04:16;;;;;;;8.23;1.30;;;21.80;99.90;;;;;;5028137;28;20021;-74
2022/04/10 07:06:47;;;;;;;6.47;1.20;;;21.70;99.90;;;;;;5031839;28;20116;-74
2022/04/10 07:09:15;;;;;;;7.93;1.42;;;21.70;99.90;;;;;;5034439;28;20484;-74
2022/04/10 07:11:43;;;;;;;8.38;1.60;;;21.60;99.90;;;;;;5034724;28;20030;-74
2022/04/10 07:14:10;;;;;;;9.45;1.48;;;21.50;99.90;;;;;;5032907;28;20033;-77
2022/04/10 07:16:37;;;;;;;11.85;1.48;;;21.50;99.90;;;;;;5093903;23;20106;-73
2022/04/10 07:19:06;;;;;;;3.67;0.95;;;21.50;99.90;;;;;;5093421;28;20028;-73
2022/04/10 07:24:18;;;;;;;7.68;1.23;;;21.40;99.90;;;;;;5095729;28;20043;-73
2022/04/10 07:26:46;;;;;;;10.98;1.38;;;21.40;99.90;;;;;;5097526;28;20020;-74
2022/04/10 07:29:13;;;;;;;7.10;1.63;;;21.30;99.90;;;;;;5094128;28;20085;-73
2022/04/10 07:31:41;;;;;;;6.63;1.33;;;21.30;99.90;;;;;;5095585;28;20506;-73
2022/04/10 07:34:08;;;;;;;7.80;1.20;;;21.20;99.90;;;;;;5092303;28;20541;-73
2022/04/10 07:36:35;;;;;;;9.88;1.80;;;21.20;99.90;;;;;;5095926;28;20036;-73
2022/04/10 07:39:03;;;;;;;10.70;1.60;;;21.20;99.90;;;;;;5095491;28;20016;-73
2022/04/10 07:41:30;;;;;;;6.38;1.10;;;21.10;99.90;;;;;;5094125;28;20388;-73
2022/04/10 07:43:57;;;;;;;9.20;1.30;;;21.10;99.90;;;;;;5093003;28;20476;-73
2022/04/10 07:49:10;;;;;;;16.13;2.30;;;21.10;99.90;;;;;;5094859;28;20089;-73
2022/04/10 07:51:37;;;;;;;5.03;0.82;;;21.00;99.90;;;;;;5084086;22;20477;-73
2022/04/10 07:54:05;;;;;;;5.05;1.55;;;21.00;99.90;;;;;;5087735;23;20017;-73
2022/04/10 07:56:32;;;;;;;5.78;1.17;;;21.00;99.90;;;;;;5043189;28;20473;-73
2022/04/10 07:58:59;;;;;;;9.77;1.30;;;21.00;99.90;;;;;;5045798;28;20096;-73
2022/04/10 08:01:26;;;;;;;7.95;1.10;;;20.90;99.90;;;;;;5054184;28;20021;-73
2022/04/10 08:03:54;;;;;;;10.27;2.20;;;20.90;99.90;;;;;;5038845;28;20017;-74
2022/04/10 08:06:21;;;;;;;8.75;1.58;;;20.80;99.90;;;;;;5055110;28;20020;-73
2022/04/10 08:08:48;;;;;;;6.47;1.55;;;20.80;99.90;;;;;;5055506;28;20029;-74
2022/04/10 08:11:16;;;;;;;6.28;1.55;;;20.80;99.90;;;;;;5055676;28;20120;-73
2022/04/10 08:13:43;;;;;;;8.00;1.70;;;20.80;99.90;;;;;;5053600;28;20032;-73
2022/04/10 08:16:10;;;;;;;13.20;1.95;;;20.70;99.90;;;;;;5055259;28;20040;-73
2022/04/10 08:18:38;;;;;;;9.55;2.10;;;20.60;99.90;;;;;;5053779;28;20052;-73
2022/04/10 08:21:05;;;;;;;10.05;1.88;;;20.60;99.90;;;;;;5048461;28;20021;-73
2022/04/10 08:23:32;;;;;;;8.88;1.60;;;20.60;99.90;;;;;;5054551;28;20097;-73
2022/04/10 08:25:59;;;;;;;6.57;1.85;;;20.60;99.90;;;;;;5054812;28;20036;-73
2022/04/10 08:28:27;;;;;;;9.30;1.60;;;20.60;99.90;;;;;;5054335;28;20386;-73
2022/04/10 08:30:54;;;;;;;11.85;1.95;;;20.50;99.90;;;;;;5054128;28;20108;-73
2022/04/10 08:33:21;;;;;;;9.35;1.65;;;20.50;99.90;;;;;;5042969;28;20108;-73
2022/04/10 08:35:48;;;;;;;8.10;1.52;;;20.50;99.90;;;;;;5052454;28;20033;-74
2022/04/10 08:38:16;;;;;;;8.93;1.30;;;20.50;99.90;;;;;;5044092;28;22816;-73
2022/04/10 08:40:48;;;;;;;7.45;1.48;;;20.40;99.90;;;;;;5044081;28;20098;-73
2022/04/10 08:43:17;;;;;;;4.18;0.80;;;20.40;99.90;;;;;;5040665;28;20029;-74
2022/04/10 08:45:46;;;;;;;6.60;1.38;;;20.40;99.90;;;;;;5049340;28;20598;-73
2022/04/10 08:48:14;;;;;;;6.68;1.40;;;20.50;99.90;;;;;;5037460;28;20136;-73
2022/04/10 08:50:43;;;;;;;9.25;1.40;;;20.40;99.90;;;;;;5052729;28;20051;-73
2022/04/10 08:53:10;;;;;;;8.88;1.52;;;20.40;99.90;;;;;;5054186;28;20017;-73
2022/04/10 08:55:38;;;;;;;6.90;2.38;;;20.40;99.90;;;;;;5053934;28;20536;-73
2022/04/10 08:58:05;;;;;;;9.05;1.40;;;20.40;99.90;;;;;;5042406;28;20029;-73
2022/04/10 09:00:32;;;;;;;8.25;1.23;;;20.40;99.90;;;;;;5049335;28;20033;-73
2022/04/10 09:03:00;;;;;;;16.27;1.95;;;20.40;99.90;;;;;;5054924;28;20035;-73
2022/04/10 09:05:27;;;;;;;10.10;1.60;;;20.40;99.90;;;;;;5053621;28;20538;-73
2022/04/10 09:08:17;;;;;;;9.05;1.55;;;20.40;99.90;;;;;;5053635;28;20056;-69
2022/04/10 09:10:57;;;;;;;10.40;1.63;;;20.30;99.90;;;;;;5045928;28;20052;-68
2022/04/10 09:13:28;;;;;;;11.70;1.35;;;20.30;99.90;;;;;;5016379;28;20124;-68
2022/04/10 09:16:19;;;;;;;10.18;1.33;;;20.30;99.90;;;;;;5033723;28;20486;-68
2022/04/10 09:19:01;;;;;;;6.63;1.10;;;20.30;99.90;;;;;;5045660;28;20029;-68
2022/04/10 09:21:30;;;;;;;9.98;1.70;;;20.30;99.90;;;;;;5052122;28;20021;-68
2022/04/10 09:24:12;;;;;;;9.88;1.40;;;20.30;99.90;;;;;;5053003;28;20021;-68
2022/04/10 09:26:45;;;;;;;13.93;2.08;;;20.20;99.90;;;;;;5035311;28;20028;-66
2022/04/10 09:29:15;;;;;;;9.32;1.30;;;20.20;99.90;;;;;;5026882;28;20508;-66
2022/04/10 09:31:43;;;;;;;10.35;1.60;;;20.20;99.90;;;;;;5051438;28;20017;-66
2022/04/10 09:34:21;;;;;;;10.80;1.75;;;20.20;99.90;;;;;;5043770;28;20032;-66
2022/04/10 09:36:59;;;;;;;12.70;2.15;;;20.20;99.90;;;;;;5034986;28;20535;-67
2022/04/10 09:39:37;;;;;;;11.02;2.75;;;20.20;99.90;;;;;;5036103;28;20416;-67
2022/04/10 09:42:09;;;;;;;6.88;1.40;;;20.10;99.90;;;;;;5053264;28;20021;-67
2022/04/10 09:44:39;;;;;;;10.00;2.17;;;20.20;99.90;;;;;;5044114;28;20021;-67
2022/04/10 09:47:07;;;;;;;9.20;1.70;;;20.10;99.90;;;;;;5023395;28;20059;-67
2022/04/10 09:49:39;;;;;;;7.70;1.35;;;20.10;99.90;;;;;;5045964;28;20489;-67
2022/04/10 09:52:12;;;;;;;10.65;1.52;;;20.10;99.90;;;;;;5052883;28;20060;-67
2022/04/10 09:54:46;;;;;;;6.32;1.63;;;20.10;99.90;;;;;;5046670;28;20041;-66
2022/04/10 09:57:14;;;;;;;;;;;20.10;99.90;;;;;;5049972;28;20036;-66
2022/04/10 09:59:49;;;;;;;13.45;1.65;;;20.10;99.90;;;;;;5051352;28;19905;-67
2022/04/10 10:02:18;;;;;;;5.88;1.10;;;20.10;99.90;;;;;;5076629;23;20076;-67
2022/04/10 10:04:48;;;;;;;9.75;2.03;;;20.10;99.90;;;;;;5061911;28;20502;-67
2022/04/10 10:07:18;;;;;;;5.70;1.90;;;20.10;99.90;;;;;;5083682;28;20479;-67
2022/04/10 10:09:46;;;;;;;6.22;1.60;;;20.10;99.90;;;;;;5071149;28;20494;-68
2022/04/10 10:12:18;;;;;;;7.03;1.77;;;20.00;99.90;;;;;;5071264;28;20017;-67
2022/04/10 10:14:45;;;;;;;7.38;1.90;;;20.00;99.90;;;;;;5083640;22;20055;-67
2022/04/10 10:17:13;;;;;;;8.80;1.60;;;20.00;99.90;;;;;;5055096;28;20020;-68
2022/04/10 10:19:41;;;;;;;6.18;2.03;;;20.00;99.90;;;;;;5067185;28;20058;-68
2022/04/10 10:22:12;;;;;;;8.85;2.92;;;20.00;99.90;;;;;;5072958;28;20090;-68
2022/04/10 10:25:07;;;;;;;9.95;5.60;;;20.00;99.90;;;;;;5072666;28;20477;-68
2022/04/10 10:28:38;;;;;;;12.02;5.63;;;20.00;99.90;;;;;;5065731;28;20025;-68
2022/04/10 10:31:28;;;;;;;11.45;3.30;;;20.00;99.90;;;;;;4949636;28;20138;-68
2022/04/10 10:34:05;;;;;;;12.82;2.78;;;20.00;99.90;;;;;;5066232;28;20111;-68
2022/04/10 10:36:33;;;;;;;5.75;1.88;;;20.00;99.90;;;;;;5051465;28;20032;-68
2022/04/10 10:39:00;;;;;;;7.95;1.85;;;19.90;99.90;;;;;;5069914;28;20062;-68
2022/04/10 10:41:27;;;;;;;9.13;2.08;;;20.00;99.90;;;;;;5072277;28;20028;-68
2022/04/10 10:43:56;;;;;;;11.23;1.52;;;19.90;99.90;;;;;;5071727;28;20021;-68
2022/04/10 10:46:26;;;;;;;11.48;1.95;;;19.90;99.90;;;;;;5046189;23;20064;-68
2022/04/10 10:49:14;;;;;;;8.40;1.98;;;19.90;99.90;;;;;;5052146;28;20496;-68
2022/04/10 10:51:47;;;;;;;6.53;1.60;;;19.90;99.90;;;;;;5058126;28;20038;-68
2022/04/10 10:54:21;;;;;;;10.20;1.67;;;19.80;99.90;;;;;;5071879;28;20032;-68
2022/04/10 10:56:50;;;;;;;;;;;19.80;99.90;;;;;;5054936;23;20048;-68
2022/04/10 10:59:35;;;;;;;10.95;1.75;;;19.80;99.90;;;;;;5072563;28;20381;-69
2022/04/10 11:02:11;;;;;;;9.85;1.70;;;19.80;99.90;;;;;;5069145;28;20040;-68
2022/04/10 11:04:42;;;;;;;10.93;2.55;;;19.80;99.90;;;;;;5088223;22;20040;-68
2022/04/10 11:07:19;;;;;;;10.27;2.75;;;19.80;99.90;;;;;;5054016;28;20032;-68
2022/04/10 11:10:04;;;;;;;6.45;1.80;;;19.80;99.90;;;;;;5070181;28;20489;-68
2022/04/10 11:13:06;;;;;;;8.65;2.22;;;19.80;99.90;;;;;;5071332;28;20028;-68
2022/04/10 11:15:48;;;;;;;10.95;2.80;;;19.70;99.90;;;;;;5036538;28;20045;-68
2022/04/10 11:18:25;;;;;;;8.48;2.03;;;19.70;99.90;;;;;;5070401;28;20086;-68
2022/04/10 11:21:05;;;;;;;10.45;1.52;;;19.70;99.90;;;;;;5066427;22;20049;-69
2022/04/10 11:23:39;;;;;;;7.80;1.60;;;19.70;99.90;;;;;;5041549;28;20056;-69
2022/04/10 11:26:13;;;;;;;12.02;2.03;;;19.70;99.90;;;;;;5043800;28;20048;-69
2022/04/10 11:29:07;;;;;;;11.73;1.87;;;19.70;99.90;;;;;;5047600;28;20021;-69
2022/04/10 11:31:46;;;;;;;9.45;2.03;;;19.70;99.90;;;;;;5052219;28;20369;-69
2022/04/10 11:34:22;;;;;;;7.47;1.50;;;19.60;99.90;;;;;;5044208;28;20629;-69
2022/04/10 11:36:52;;;;;;;7.78;2.13;;;19.60;99.90;;;;;;5047921;28;20425;-69
2022/04/10 11:39:32;;;;;;;16.35;5.22;;;19.60;99.90;;;;;;5047818;28;20044;-69
2022/04/10 11:42:11;;;;;;;17.45;5.18;;;19.70;99.90;;;;;;5047901;28;20025;-69
2022/04/10 11:44:40;;;;;;;12.82;4.18;;;19.70;99.90;;;;;;5029875;28;20159;-69
2022/04/10 11:47:11;;;;;;;10.80;2.92;;;19.60;99.90;;;;;;5050473;28;20025;-69
2022/04/10 11:49:39;;;;;;;10.95;2.78;;;19.60;99.90;;;;;;5049477;28;20120;-69
2022/04/10 11:52:07;;;;;;;6.07;2.33;;;19.60;99.90;;;;;;5048473;23;20605;-69
2022/04/10 11:54:37;;;;;;;9.90;2.50;;;19.60;99.90;;;;;;5054207;28;20151;-69
2022/04/10 11:57:06;;;;;;;10.48;3.50;;;19.60;99.90;;;;;;5056167;28;20025;-69
2022/04/10 11:59:38;;;;;;;14.32;3.45;;;19.60;99.90;;;;;;5048966;28;20029;-69
2022/04/10 12:02:08;;;;;;;8.07;2.47;;;19.60;99.90;;;;;;5055208;28;20116;-69
2022/04/10 12:04:36;;;;;;;11.68;3.20;;;19.50;99.90;;;;;;5054188;28;20028;-69
2022/04/10 12:07:13;;;;;;;8.85;2.67;;;19.50;99.90;;;;;;5054850;28;20029;-68
2022/04/10 12:09:41;;;;;;;13.63;2.65;;;19.40;99.90;;;;;;5057729;28;20401;-69
2022/04/10 12:12:09;;;;;;;12.18;2.10;;;19.40;99.90;;;;;;5053989;28;20127;-69
2022/04/10 12:14:37;;;;;;;12.30;1.90;;;19.30;99.90;;;;;;5055864;28;20021;-69
2022/04/10 12:17:11;;;;;;;10.63;1.92;;;19.30;99.90;;;;;;5052998;28;20025;-69
2022/04/10 12:19:39;;;;;;;10.85;2.50;;;19.30;99.90;;;;;;5054024;28;20033;-69
2022/04/10 12:22:10;;;;;;;16.60;2.95;;;19.30;99.90;;;;;;5058927;28;20033;-69
2022/04/10 12:24:38;;;;;;;10.95;2.30;;;19.30;99.90;;;;;;5037578;28;20057;-69
2022/04/10 12:27:08;;;;;;;11.00;2.55;;;19.40;99.90;;;;;;5053405;28;20054;-69
2022/04/10 12:29:36;;;;;;;9.80;2.55;;;19.40;99.90;;;;;;5053530;28;20584;-69
2022/04/10 12:32:09;;;;;;;12.20;2.58;;;19.40;99.90;;;;;;5053993;28;20036;-69
2022/04/10 12:34:41;;;;;;;12.43;2.85;;;19.40;99.90;;;;;;5049142;28;20382;-69
2022/04/10 12:37:11;;;;;;;18.00;3.10;;;19.40;99.90;;;;;;5052592;28;20056;-68
2022/04/10 12:39:39;;;;;;;12.02;2.50;;;19.40;99.90;;;;;;5056785;28;20035;-69
2022/04/10 12:42:10;;;;;;;16.30;2.92;;;19.40;99.90;;;;;;5057338;28;20028;-69
2022/04/10 12:44:39;;;;;;;10.65;1.98;;;19.30;99.90;;;;;;5037862;28;20393;-68
2022/04/10 12:47:08;;;;;;;9.77;2.60;;;19.40;99.90;;;;;;5053328;28;20029;-68
2022/04/10 12:49:38;;;;;;;10.20;2.92;;;19.30;99.90;;;;;;5052200;28;20349;-69
2022/04/10 12:52:09;;;;;;;7.65;1.92;;;19.40;99.90;;;;;;5039117;28;20038;-69
2022/04/10 12:54:40;;;;;;;9.55;2.15;;;19.40;99.90;;;;;;5033645;28;20080;-69
2022/04/10 12:57:12;;;;;;;7.85;2.40;;;19.40;99.90;;;;;;5089425;22;20064;-68
2022/04/10 12:59:42;;;;;;;15.77;2.92;;;19.40;99.90;;;;;;5069591;28;20025;-68
2022/04/10 13:04:37;;;;;;;14.15;3.55;;;19.30;99.90;;;;;;5030324;28;20045;-68